sensor_id;sensor_type;location;lat;lon;timestamp;temperature;humidity
82183;DHT22;71763;52.220;13.000;2024-02-14T00:02:06;2.80;68.00
82183;DHT22;71763;52.220;13.000;2024-02-14T00:04:32;2.90;67.90
82183;DHT22;71763;52.220;13.000;2024-02-14T00:06:57;2.90;67.90
82183;DHT22;71763;52.220;13.000;2024-02-14T00:09:26;2.90;68.00
82183;DHT22;71763;52.220;13.000;2024-02-14T00:11:51;3.10;68.20
82183;DHT22;71763;52.220;13.000;2024-02-14T00:14:17;2.90;68.10
82183;DHT22;71763;52.220;13.000;2024-02-14T00:16:44;2.80;68.20
82183;DHT22;71763;52.220;13.000;2024-02-14T00:19:10;2.80;68.30
82183;DHT22;71763;52.220;13.000;2024-02-14T00:21:35;2.70;68.40
82183;DHT22;71763;52.220;13.000;2024-02-14T00:24:01;2.70;68.40
82183;DHT22;71763;52.220;13.000;2024-02-14T00:26:27;2.80;68.70
82183;DHT22;71763;52.220;13.000;2024-02-14T00:28:52;2.70;68.60
82183;DHT22;71763;52.220;13.000;2024-02-14T00:31:18;2.70;68.70
82183;DHT22;71763;52.220;13.000;2024-02-14T00:33:43;2.60;68.60
82183;DHT22;71763;52.220;13.000;2024-02-14T00:36:11;2.60;68.70
82183;DHT22;71763;52.220;13.000;2024-02-14T00:38:37;2.80;68.90
82183;DHT22;71763;52.220;13.000;2024-02-14T00:41:02;2.70;68.80
82183;DHT22;71763;52.220;13.000;2024-02-14T00:43:28;2.70;68.80
82183;DHT22;71763;52.220;13.000;2024-02-14T00:45:57;2.70;68.60
82183;DHT22;71763;52.220;13.000;2024-02-14T00:48:23;2.70;68.60
82183;DHT22;71763;52.220;13.000;2024-02-14T00:50:49;2.80;68.70
82183;DHT22;71763;52.220;13.000;2024-02-14T00:53:14;2.80;68.50
82183;DHT22;71763;52.220;13.000;2024-02-14T00:55:40;2.80;68.50
82183;DHT22;71763;52.220;13.000;2024-02-14T00:58:08;2.90;68.50
82183;DHT22;71763;52.220;13.000;2024-02-14T01:00:33;2.90;68.40
82183;DHT22;71763;52.220;13.000;2024-02-14T01:02:59;2.90;68.40
82183;DHT22;71763;52.220;13.000;2024-02-14T01:05:24;3.00;68.40
82183;DHT22;71763;52.220;13.000;2024-02-14T01:07:53;2.90;68.40
82183;DHT22;71763;52.220;13.000;2024-02-14T01:10:20;3.20;68.70
82183;DHT22;71763;52.220;13.000;2024-02-14T01:12:45;3.00;68.50
82183;DHT22;71763;52.220;13.000;2024-02-14T01:15:11;3.00;68.40
82183;DHT22;71763;52.220;13.000;2024-02-14T01:17:36;3.00;68.40
82183;DHT22;71763;52.220;13.000;2024-02-14T01:20:06;3.00;68.40
82183;DHT22;71763;52.220;13.000;2024-02-14T01:22:37;2.90;68.40
82183;DHT22;71763;52.220;13.000;2024-02-14T01:25:03;3.00;68.60
82183;DHT22;71763;52.220;13.000;2024-02-14T01:27:29;3.00;68.60
82183;DHT22;71763;52.220;13.000;2024-02-14T01:29:55;3.00;68.60
82183;DHT22;71763;52.220;13.000;2024-02-14T01:32:22;3.00;68.60
82183;DHT22;71763;52.220;13.000;2024-02-14T01:34:48;3.00;68.80
82183;DHT22;71763;52.220;13.000;2024-02-14T01:37:14;2.90;68.70
82183;DHT22;71763;52.220;13.000;2024-02-14T01:39:39;2.90;68.70
82183;DHT22;71763;52.220;13.000;2024-02-14T01:42:05;2.90;68.70
82183;DHT22;71763;52.220;13.000;2024-02-14T01:44:32;2.90;68.70
82183;DHT22;71763;52.220;13.000;2024-02-14T01:46:58;3.10;68.80
82183;DHT22;71763;52.220;13.000;2024-02-14T01:49:23;3.20;68.90
82183;DHT22;71763;52.220;13.000;2024-02-14T01:51:49;3.00;68.70
82183;DHT22;71763;52.220;13.000;2024-02-14T01:54:14;3.00;68.60
82183;DHT22;71763;52.220;13.000;2024-02-14T01:56:42;3.00;68.60
82183;DHT22;71763;52.220;13.000;2024-02-14T01:59:09;3.00;68.60
82183;DHT22;71763;52.220;13.000;2024-02-14T02:01:35;3.10;68.60
82183;DHT22;71763;52.220;13.000;2024-02-14T02:04:00;3.10;68.60
82183;DHT22;71763;52.220;13.000;2024-02-14T02:06:26;3.10;68.60
82183;DHT22;71763;52.220;13.000;2024-02-14T02:08:52;3.10;68.60
82183;DHT22;71763;52.220;13.000;2024-02-14T02:11:18;3.10;68.60
82183;DHT22;71763;52.220;13.000;2024-02-14T02:13:44;3.10;68.70
82183;DHT22;71763;52.220;13.000;2024-02-14T02:16:09;3.10;68.60
82183;DHT22;71763;52.220;13.000;2024-02-14T02:18:35;3.10;68.60
82183;DHT22;71763;52.220;13.000;2024-02-14T02:21:00;3.10;68.70
82183;DHT22;71763;52.220;13.000;2024-02-14T02:23:29;3.30;68.80
82183;DHT22;71763;52.220;13.000;2024-02-14T02:25:55;3.20;68.60
82183;DHT22;71763;52.220;13.000;2024-02-14T02:28:21;3.30;69.30
82183;DHT22;71763;52.220;13.000;2024-02-14T02:30:46;3.30;69.20
82183;DHT22;71763;52.220;13.000;2024-02-14T02:33:11;3.30;68.40
82183;DHT22;71763;52.220;13.000;2024-02-14T02:35:39;3.30;69.00
82183;DHT22;71763;52.220;13.000;2024-02-14T02:38:05;3.30;68.50
82183;DHT22;71763;52.220;13.000;2024-02-14T02:40:31;3.30;68.60
82183;DHT22;71763;52.220;13.000;2024-02-14T02:42:57;3.40;68.70
82183;DHT22;71763;52.220;13.000;2024-02-14T02:45:23;3.40;68.60
82183;DHT22;71763;52.220;13.000;2024-02-14T02:47:50;3.40;68.60
82183;DHT22;71763;52.220;13.000;2024-02-14T02:50:16;3.40;68.60
82183;DHT22;71763;52.220;13.000;2024-02-14T02:52:42;3.40;68.60
82183;DHT22;71763;52.220;13.000;2024-02-14T02:55:08;3.50;68.60
82183;DHT22;71763;52.220;13.000;2024-02-14T02:57:33;3.40;68.50
82183;DHT22;71763;52.220;13.000;2024-02-14T03:00:02;3.40;68.40
82183;DHT22;71763;52.220;13.000;2024-02-14T03:02:30;3.40;68.60
82183;DHT22;71763;52.220;13.000;2024-02-14T03:04:56;3.30;68.60
82183;DHT22;71763;52.220;13.000;2024-02-14T03:07:22;3.30;68.80
82183;DHT22;71763;52.220;13.000;2024-02-14T03:09:48;3.30;68.90
82183;DHT22;71763;52.220;13.000;2024-02-14T03:12:14;3.20;68.90
82183;DHT22;71763;52.220;13.000;2024-02-14T03:14:41;3.20;69.10
82183;DHT22;71763;52.220;13.000;2024-02-14T03:17:08;3.10;69.20
82183;DHT22;71763;52.220;13.000;2024-02-14T03:19:35;3.10;69.40
82183;DHT22;71763;52.220;13.000;2024-02-14T03:22:04;3.20;69.50
82183;DHT22;71763;52.220;13.000;2024-02-14T03:24:31;3.20;69.60
82183;DHT22;71763;52.220;13.000;2024-02-14T03:26:56;3.20;69.70
82183;DHT22;71763;52.220;13.000;2024-02-14T03:29:22;3.00;69.40
82183;DHT22;71763;52.220;13.000;2024-02-14T03:31:47;3.10;69.60
82183;DHT22;71763;52.220;13.000;2024-02-14T03:34:13;3.10;69.50
82183;DHT22;71763;52.220;13.000;2024-02-14T03:36:39;3.10;69.40
82183;DHT22;71763;52.220;13.000;2024-02-14T03:39:04;3.20;69.50
82183;DHT22;71763;52.220;13.000;2024-02-14T03:41:30;3.40;69.30
82183;DHT22;71763;52.220;13.000;2024-02-14T03:43:56;3.20;69.10
82183;DHT22;71763;52.220;13.000;2024-02-14T03:46:26;3.30;69.00
82183;DHT22;71763;52.220;13.000;2024-02-14T03:48:52;3.30;68.90
82183;DHT22;71763;52.220;13.000;2024-02-14T03:51:18;3.30;68.90
82183;DHT22;71763;52.220;13.000;2024-02-14T03:53:44;3.40;68.90
82183;DHT22;71763;52.220;13.000;2024-02-14T03:56:10;3.40;68.80
82183;DHT22;71763;52.220;13.000;2024-02-14T03:58:35;3.40;68.80
82183;DHT22;71763;52.220;13.000;2024-02-14T04:01:03;3.40;68.80
82183;DHT22;71763;52.220;13.000;2024-02-14T04:03:28;3.40;68.80
82183;DHT22;71763;52.220;13.000;2024-02-14T04:05:54;3.50;69.00
82183;DHT22;71763;52.220;13.000;2024-02-14T04:08:20;3.50;68.90
82183;DHT22;71763;52.220;13.000;2024-02-14T04:10:45;3.70;69.00
82183;DHT22;71763;52.220;13.000;2024-02-14T04:13:11;3.50;68.80
82183;DHT22;71763;52.220;13.000;2024-02-14T04:15:36;3.50;68.90
82183;DHT22;71763;52.220;13.000;2024-02-14T04:18:02;3.60;68.90
82183;DHT22;71763;52.220;13.000;2024-02-14T04:20:29;3.60;68.80
82183;DHT22;71763;52.220;13.000;2024-02-14T04:22:55;3.60;68.80
82183;DHT22;71763;52.220;13.000;2024-02-14T04:25:20;3.60;68.70
82183;DHT22;71763;52.220;13.000;2024-02-14T04:27:46;3.60;68.70
82183;DHT22;71763;52.220;13.000;2024-02-14T04:30:11;3.80;68.90
82183;DHT22;71763;52.220;13.000;2024-02-14T04:32:37;3.60;68.80
82183;DHT22;71763;52.220;13.000;2024-02-14T04:35:03;3.70;69.10
82183;DHT22;71763;52.220;13.000;2024-02-14T04:37:29;3.80;69.30
82183;DHT22;71763;52.220;13.000;2024-02-14T04:39:54;3.50;69.10
82183;DHT22;71763;52.220;13.000;2024-02-14T04:42:20;3.40;69.10
82183;DHT22;71763;52.220;13.000;2024-02-14T04:44:45;3.40;69.20
82183;DHT22;71763;52.220;13.000;2024-02-14T04:47:11;3.40;69.40
82183;DHT22;71763;52.220;13.000;2024-02-14T04:49:36;3.30;70.00
82183;DHT22;71763;52.220;13.000;2024-02-14T04:52:03;3.30;69.50
82183;DHT22;71763;52.220;13.000;2024-02-14T04:54:29;3.40;69.70
82183;DHT22;71763;52.220;13.000;2024-02-14T04:56:55;3.20;69.50
82183;DHT22;71763;52.220;13.000;2024-02-14T04:59:20;3.20;69.70
82183;DHT22;71763;52.220;13.000;2024-02-14T05:01:46;3.10;69.80
82183;DHT22;71763;52.220;13.000;2024-02-14T05:04:12;3.00;69.90
82183;DHT22;71763;52.220;13.000;2024-02-14T05:06:38;3.00;70.20
82183;DHT22;71763;52.220;13.000;2024-02-14T05:09:04;2.90;70.20
82183;DHT22;71763;52.220;13.000;2024-02-14T05:11:29;2.90;70.30
82183;DHT22;71763;52.220;13.000;2024-02-14T05:13:55;2.80;70.30
82183;DHT22;71763;52.220;13.000;2024-02-14T05:16:20;2.80;70.30
82183;DHT22;71763;52.220;13.000;2024-02-14T05:18:46;2.80;70.40
82183;DHT22;71763;52.220;13.000;2024-02-14T05:21:11;2.70;70.30
82183;DHT22;71763;52.220;13.000;2024-02-14T05:23:37;2.90;70.60
82183;DHT22;71763;52.220;13.000;2024-02-14T05:26:02;2.70;70.40
82183;DHT22;71763;52.220;13.000;2024-02-14T05:28:28;2.70;70.40
82183;DHT22;71763;52.220;13.000;2024-02-14T05:30:54;2.70;70.40
82183;DHT22;71763;52.220;13.000;2024-02-14T05:33:22;2.90;70.60
82183;DHT22;71763;52.220;13.000;2024-02-14T05:35:48;2.80;70.30
82183;DHT22;71763;52.220;13.000;2024-02-14T05:38:13;2.80;70.10
82183;DHT22;71763;52.220;13.000;2024-02-14T05:40:39;3.00;70.10
82183;DHT22;71763;52.220;13.000;2024-02-14T05:43:05;3.30;70.00
82183;DHT22;71763;52.220;13.000;2024-02-14T05:45:46;3.10;69.60
82183;DHT22;71763;52.220;13.000;2024-02-14T05:48:19;3.10;69.30
82183;DHT22;71763;52.220;13.000;2024-02-14T05:50:51;3.10;69.30
82183;DHT22;71763;52.220;13.000;2024-02-14T05:53:17;3.20;69.40
82183;DHT22;71763;52.220;13.000;2024-02-14T05:55:50;3.20;69.20
82183;DHT22;71763;52.220;13.000;2024-02-14T05:58:16;3.30;69.20
82183;DHT22;71763;52.220;13.000;2024-02-14T06:00:41;3.40;69.20
82183;DHT22;71763;52.220;13.000;2024-02-14T06:03:08;3.40;69.10
82183;DHT22;71763;52.220;13.000;2024-02-14T06:05:34;3.50;69.00
82183;DHT22;71763;52.220;13.000;2024-02-14T06:07:59;3.60;68.80
82183;DHT22;71763;52.220;13.000;2024-02-14T06:10:28;3.70;68.50
82183;DHT22;71763;52.220;13.000;2024-02-14T06:12:53;3.80;68.40
82183;DHT22;71763;52.220;13.000;2024-02-14T06:15:19;3.90;68.40
82183;DHT22;71763;52.220;13.000;2024-02-14T06:17:44;4.00;68.30
82183;DHT22;71763;52.220;13.000;2024-02-14T06:20:10;4.10;68.20
82183;DHT22;71763;52.220;13.000;2024-02-14T06:22:36;4.10;68.10
82183;DHT22;71763;52.220;13.000;2024-02-14T06:25:02;4.40;68.30
82183;DHT22;71763;52.220;13.000;2024-02-14T06:27:30;4.20;68.20
82183;DHT22;71763;52.220;13.000;2024-02-14T06:29:55;4.30;68.20
82183;DHT22;71763;52.220;13.000;2024-02-14T06:32:22;4.30;68.20
82183;DHT22;71763;52.220;13.000;2024-02-14T06:34:47;4.30;68.20
82183;DHT22;71763;52.220;13.000;2024-02-14T06:37:13;4.40;68.20
82183;DHT22;71763;52.220;13.000;2024-02-14T06:39:38;4.40;68.20
82183;DHT22;71763;52.220;13.000;2024-02-14T06:42:04;4.50;68.20
82183;DHT22;71763;52.220;13.000;2024-02-14T06:44:29;4.50;68.30
82183;DHT22;71763;52.220;13.000;2024-02-14T06:46:55;4.50;68.20
82183;DHT22;71763;52.220;13.000;2024-02-14T06:52:28;4.60;68.30
82183;DHT22;71763;52.220;13.000;2024-02-14T06:54:54;4.60;68.20
82183;DHT22;71763;52.220;13.000;2024-02-14T06:57:20;4.60;68.30
82183;DHT22;71763;52.220;13.000;2024-02-14T06:59:45;4.60;68.30
82183;DHT22;71763;52.220;13.000;2024-02-14T07:02:11;4.70;68.40
82183;DHT22;71763;52.220;13.000;2024-02-14T07:04:37;4.70;68.40
82183;DHT22;71763;52.220;13.000;2024-02-14T07:07:05;4.80;68.30
82183;DHT22;71763;52.220;13.000;2024-02-14T07:09:31;4.90;68.30
82183;DHT22;71763;52.220;13.000;2024-02-14T07:12:03;5.00;68.20
82183;DHT22;71763;52.220;13.000;2024-02-14T07:14:32;5.00;68.10
82183;DHT22;71763;52.220;13.000;2024-02-14T07:17:01;5.10;68.10
82183;DHT22;71763;52.220;13.000;2024-02-14T07:19:27;5.10;68.00
82183;DHT22;71763;52.220;13.000;2024-02-14T07:21:53;5.20;68.00
82183;DHT22;71763;52.220;13.000;2024-02-14T07:24:19;5.30;68.10
82183;DHT22;71763;52.220;13.000;2024-02-14T07:26:50;5.30;68.00
82183;DHT22;71763;52.220;13.000;2024-02-14T07:29:25;5.40;68.00
82183;DHT22;71763;52.220;13.000;2024-02-14T07:31:51;5.40;67.90
82183;DHT22;71763;52.220;13.000;2024-02-14T07:34:37;5.50;67.90
82183;DHT22;71763;52.220;13.000;2024-02-14T07:37:06;5.60;67.80
82183;DHT22;71763;52.220;13.000;2024-02-14T07:39:35;5.60;67.60
82183;DHT22;71763;52.220;13.000;2024-02-14T07:42:01;5.70;67.70
82183;DHT22;71763;52.220;13.000;2024-02-14T07:44:32;5.70;67.70
82183;DHT22;71763;52.220;13.000;2024-02-14T07:49:55;5.80;67.70
82183;DHT22;71763;52.220;13.000;2024-02-14T07:52:25;5.80;67.80
82183;DHT22;71763;52.220;13.000;2024-02-14T07:57:38;5.90;67.80
82183;DHT22;71763;52.220;13.000;2024-02-14T08:00:18;5.90;67.80
82183;DHT22;71763;52.220;13.000;2024-02-14T08:02:56;6.00;67.80
82183;DHT22;71763;52.220;13.000;2024-02-14T08:05:29;6.00;67.80
82183;DHT22;71763;52.220;13.000;2024-02-14T08:07:55;6.00;67.60
82183;DHT22;71763;52.220;13.000;2024-02-14T08:10:20;6.10;67.70
82183;DHT22;71763;52.220;13.000;2024-02-14T08:12:47;6.10;67.70
82183;DHT22;71763;52.220;13.000;2024-02-14T08:15:13;6.20;67.80
82183;DHT22;71763;52.220;13.000;2024-02-14T08:17:38;6.20;67.90
82183;DHT22;71763;52.220;13.000;2024-02-14T08:20:04;6.20;67.90
82183;DHT22;71763;52.220;13.000;2024-02-14T08:22:30;6.20;67.90
82183;DHT22;71763;52.220;13.000;2024-02-14T08:24:55;6.20;67.90
82183;DHT22;71763;52.220;13.000;2024-02-14T08:27:21;6.30;68.00
82183;DHT22;71763;52.220;13.000;2024-02-14T08:29:47;6.30;68.00
82183;DHT22;71763;52.220;13.000;2024-02-14T08:32:13;6.30;68.10
82183;DHT22;71763;52.220;13.000;2024-02-14T08:34:38;6.30;68.10
82183;DHT22;71763;52.220;13.000;2024-02-14T08:37:03;6.40;68.20
82183;DHT22;71763;52.220;13.000;2024-02-14T08:39:29;6.40;68.10
82183;DHT22;71763;52.220;13.000;2024-02-14T08:41:55;6.50;68.20
82183;DHT22;71763;52.220;13.000;2024-02-14T08:44:21;6.50;68.10
82183;DHT22;71763;52.220;13.000;2024-02-14T08:46:46;6.60;68.00
82183;DHT22;71763;52.220;13.000;2024-02-14T08:49:14;6.70;68.00
82183;DHT22;71763;52.220;13.000;2024-02-14T08:51:39;6.70;68.00
82183;DHT22;71763;52.220;13.000;2024-02-14T08:54:05;6.80;68.00
82183;DHT22;71763;52.220;13.000;2024-02-14T08:56:31;6.80;68.10
82183;DHT22;71763;52.220;13.000;2024-02-14T08:59:03;6.80;68.10
82183;DHT22;71763;52.220;13.000;2024-02-14T09:01:29;6.80;68.10
82183;DHT22;71763;52.220;13.000;2024-02-14T09:03:54;6.80;68.20
82183;DHT22;71763;52.220;13.000;2024-02-14T09:06:20;6.80;68.40
82183;DHT22;71763;52.220;13.000;2024-02-14T09:08:46;6.80;68.50
82183;DHT22;71763;52.220;13.000;2024-02-14T09:11:11;6.80;69.10
82183;DHT22;71763;52.220;13.000;2024-02-14T09:13:37;6.80;68.70
82183;DHT22;71763;52.220;13.000;2024-02-14T09:16:03;6.80;68.70
82183;DHT22;71763;52.220;13.000;2024-02-14T09:18:28;6.80;68.90
82183;DHT22;71763;52.220;13.000;2024-02-14T09:20:57;6.80;69.20
82183;DHT22;71763;52.220;13.000;2024-02-14T09:23:22;6.80;69.30
82183;DHT22;71763;52.220;13.000;2024-02-14T09:25:48;6.80;69.30
82183;DHT22;71763;52.220;13.000;2024-02-14T09:28:17;6.80;69.40
82183;DHT22;71763;52.220;13.000;2024-02-14T09:30:42;6.80;69.50
82183;DHT22;71763;52.220;13.000;2024-02-14T09:33:08;6.80;69.50
82183;DHT22;71763;52.220;13.000;2024-02-14T09:35:34;6.80;69.50
82183;DHT22;71763;52.220;13.000;2024-02-14T09:38:01;6.90;69.60
82183;DHT22;71763;52.220;13.000;2024-02-14T09:40:26;6.90;69.60
82183;DHT22;71763;52.220;13.000;2024-02-14T09:42:55;7.00;69.70
82183;DHT22;71763;52.220;13.000;2024-02-14T09:45:26;7.00;69.60
82183;DHT22;71763;52.220;13.000;2024-02-14T09:47:52;7.20;69.60
82183;DHT22;71763;52.220;13.000;2024-02-14T09:50:19;7.30;69.30
82183;DHT22;71763;52.220;13.000;2024-02-14T09:52:46;7.40;69.20
82183;DHT22;71763;52.220;13.000;2024-02-14T09:55:14;7.50;69.20
82183;DHT22;71763;52.220;13.000;2024-02-14T09:57:40;7.60;68.40
82183;DHT22;71763;52.220;13.000;2024-02-14T10:00:06;7.70;68.50
82183;DHT22;71763;52.220;13.000;2024-02-14T10:02:35;7.70;68.40
82183;DHT22;71763;52.220;13.000;2024-02-14T10:05:00;7.70;69.10
82183;DHT22;71763;52.220;13.000;2024-02-14T10:07:26;7.70;68.70
82183;DHT22;71763;52.220;13.000;2024-02-14T10:09:53;7.70;69.50
82183;DHT22;71763;52.220;13.000;2024-02-14T10:12:19;7.70;69.00
82183;DHT22;71763;52.220;13.000;2024-02-14T10:14:45;7.80;69.10
82183;DHT22;71763;52.220;13.000;2024-02-14T10:17:17;7.90;69.00
82183;DHT22;71763;52.220;13.000;2024-02-14T10:19:43;8.00;68.70
82183;DHT22;71763;52.220;13.000;2024-02-14T10:22:19;8.20;68.50
82183;DHT22;71763;52.220;13.000;2024-02-14T10:24:45;8.20;68.10
82183;DHT22;71763;52.220;13.000;2024-02-14T10:27:11;8.20;68.10
82183;DHT22;71763;52.220;13.000;2024-02-14T10:29:36;8.20;68.50
82183;DHT22;71763;52.220;13.000;2024-02-14T10:32:02;8.20;68.70
82183;DHT22;71763;52.220;13.000;2024-02-14T10:34:27;8.20;69.10
82183;DHT22;71763;52.220;13.000;2024-02-14T10:36:56;8.20;69.20
82183;DHT22;71763;52.220;13.000;2024-02-14T10:39:22;8.10;69.50
82183;DHT22;71763;52.220;13.000;2024-02-14T10:41:48;8.20;69.50
82183;DHT22;71763;52.220;13.000;2024-02-14T10:44:15;8.20;69.50
82183;DHT22;71763;52.220;13.000;2024-02-14T10:46:41;8.30;69.40
82183;DHT22;71763;52.220;13.000;2024-02-14T10:49:06;8.50;69.10
82183;DHT22;71763;52.220;13.000;2024-02-14T10:51:34;8.70;68.50
82183;DHT22;71763;52.220;13.000;2024-02-14T10:54:00;8.70;68.50
82183;DHT22;71763;52.220;13.000;2024-02-14T10:56:28;8.70;68.50
82183;DHT22;71763;52.220;13.000;2024-02-14T10:58:58;8.70;68.60
82183;DHT22;71763;52.220;13.000;2024-02-14T11:01:27;8.70;68.50
82183;DHT22;71763;52.220;13.000;2024-02-14T11:03:56;8.70;68.60
82183;DHT22;71763;52.220;13.000;2024-02-14T11:06:23;8.60;68.90
82183;DHT22;71763;52.220;13.000;2024-02-14T11:09:02;8.60;69.10
82183;DHT22;71763;52.220;13.000;2024-02-14T11:11:32;8.60;69.40
82183;DHT22;71763;52.220;13.000;2024-02-14T11:13:58;8.60;69.50
82183;DHT22;71763;52.220;13.000;2024-02-14T11:16:27;8.60;69.60
82183;DHT22;71763;52.220;13.000;2024-02-14T11:18:54;8.60;69.80
82183;DHT22;71763;52.220;13.000;2024-02-14T11:21:20;8.60;69.80
82183;DHT22;71763;52.220;13.000;2024-02-14T11:23:54;8.60;69.90
82183;DHT22;71763;52.220;13.000;2024-02-14T11:26:20;8.60;69.90
82183;DHT22;71763;52.220;13.000;2024-02-14T11:28:48;8.50;70.00
82183;DHT22;71763;52.220;13.000;2024-02-14T11:31:17;8.50;70.00
82183;DHT22;71763;52.220;13.000;2024-02-14T11:33:42;8.50;70.20
82183;DHT22;71763;52.220;13.000;2024-02-14T11:36:11;8.40;70.20
82183;DHT22;71763;52.220;13.000;2024-02-14T11:38:36;8.40;70.30
82183;DHT22;71763;52.220;13.000;2024-02-14T11:41:02;8.40;70.50
82183;DHT22;71763;52.220;13.000;2024-02-14T11:43:29;8.40;70.40
82183;DHT22;71763;52.220;13.000;2024-02-14T11:45:54;8.40;70.60
82183;DHT22;71763;52.220;13.000;2024-02-14T11:48:20;8.50;70.60
82183;DHT22;71763;52.220;13.000;2024-02-14T11:50:46;8.50;70.50
82183;DHT22;71763;52.220;13.000;2024-02-14T11:53:14;8.50;70.40
82183;DHT22;71763;52.220;13.000;2024-02-14T11:55:42;8.60;70.40
82183;DHT22;71763;52.220;13.000;2024-02-14T11:58:08;8.60;70.30
82183;DHT22;71763;52.220;13.000;2024-02-14T12:00:53;8.70;70.30
82183;DHT22;71763;52.220;13.000;2024-02-14T12:03:20;8.70;70.20
82183;DHT22;71763;52.220;13.000;2024-02-14T12:05:49;8.80;70.10
82183;DHT22;71763;52.220;13.000;2024-02-14T12:08:15;8.80;70.10
82183;DHT22;71763;52.220;13.000;2024-02-14T12:10:45;8.80;70.10
82183;DHT22;71763;52.220;13.000;2024-02-14T12:13:15;8.90;70.20
82183;DHT22;71763;52.220;13.000;2024-02-14T12:15:41;9.00;70.20
82183;DHT22;71763;52.220;13.000;2024-02-14T12:18:07;9.00;70.20
82183;DHT22;71763;52.220;13.000;2024-02-14T12:20:33;9.10;70.00
82183;DHT22;71763;52.220;13.000;2024-02-14T12:22:59;9.10;69.80
82183;DHT22;71763;52.220;13.000;2024-02-14T12:25:25;9.20;69.80
82183;DHT22;71763;52.220;13.000;2024-02-14T12:27:52;9.20;69.90
82183;DHT22;71763;52.220;13.000;2024-02-14T12:30:18;9.20;70.00
82183;DHT22;71763;52.220;13.000;2024-02-14T12:32:45;9.30;70.10
82183;DHT22;71763;52.220;13.000;2024-02-14T12:35:11;9.30;70.10
82183;DHT22;71763;52.220;13.000;2024-02-14T12:37:37;9.30;70.10
82183;DHT22;71763;52.220;13.000;2024-02-14T12:40:03;9.40;70.00
82183;DHT22;71763;52.220;13.000;2024-02-14T12:42:30;9.40;69.90
82183;DHT22;71763;52.220;13.000;2024-02-14T12:44:57;9.50;69.80
82183;DHT22;71763;52.220;13.000;2024-02-14T12:47:23;9.50;69.80
82183;DHT22;71763;52.220;13.000;2024-02-14T12:49:49;9.50;70.00
82183;DHT22;71763;52.220;13.000;2024-02-14T12:52:14;9.60;69.90
82183;DHT22;71763;52.220;13.000;2024-02-14T12:54:40;9.60;69.80
82183;DHT22;71763;52.220;13.000;2024-02-14T12:57:05;9.60;69.80
82183;DHT22;71763;52.220;13.000;2024-02-14T12:59:32;9.60;69.90
82183;DHT22;71763;52.220;13.000;2024-02-14T13:01:57;9.60;70.10
82183;DHT22;71763;52.220;13.000;2024-02-14T13:04:23;9.70;70.20
82183;DHT22;71763;52.220;13.000;2024-02-14T13:06:48;9.70;70.20
82183;DHT22;71763;52.220;13.000;2024-02-14T13:09:14;9.70;70.10
82183;DHT22;71763;52.220;13.000;2024-02-14T13:11:40;9.80;70.10
82183;DHT22;71763;52.220;13.000;2024-02-14T13:14:06;9.90;69.80
82183;DHT22;71763;52.220;13.000;2024-02-14T13:16:31;10.00;68.60
82183;DHT22;71763;52.220;13.000;2024-02-14T13:18:57;10.00;68.60
82183;DHT22;71763;52.220;13.000;2024-02-14T13:21:23;10.00;68.60
82183;DHT22;71763;52.220;13.000;2024-02-14T13:23:49;10.10;68.70
82183;DHT22;71763;52.220;13.000;2024-02-14T13:26:14;10.10;68.70
82183;DHT22;71763;52.220;13.000;2024-02-14T13:28:40;10.10;68.70
82183;DHT22;71763;52.220;13.000;2024-02-14T13:31:06;10.20;68.80
82183;DHT22;71763;52.220;13.000;2024-02-14T13:33:31;10.20;68.80
82183;DHT22;71763;52.220;13.000;2024-02-14T13:35:57;10.20;68.80
82183;DHT22;71763;52.220;13.000;2024-02-14T13:38:22;10.30;68.90
82183;DHT22;71763;52.220;13.000;2024-02-14T13:40:48;10.30;68.90
82183;DHT22;71763;52.220;13.000;2024-02-14T13:43:14;10.30;69.00
82183;DHT22;71763;52.220;13.000;2024-02-14T13:45:42;10.20;68.80
82183;DHT22;71763;52.220;13.000;2024-02-14T13:48:08;10.20;68.80
82183;DHT22;71763;52.220;13.000;2024-02-14T13:50:36;10.20;68.80
82183;DHT22;71763;52.220;13.000;2024-02-14T13:53:01;10.20;68.80
82183;DHT22;71763;52.220;13.000;2024-02-14T13:55:27;10.20;69.00
82183;DHT22;71763;52.220;13.000;2024-02-14T13:57:52;10.20;68.90
82183;DHT22;71763;52.220;13.000;2024-02-14T14:00:18;10.20;69.10
82183;DHT22;71763;52.220;13.000;2024-02-14T14:02:43;10.20;68.90
82183;DHT22;71763;52.220;13.000;2024-02-14T14:05:09;10.30;69.00
82183;DHT22;71763;52.220;13.000;2024-02-14T14:07:38;10.30;69.00
82183;DHT22;71763;52.220;13.000;2024-02-14T14:10:08;10.30;69.10
82183;DHT22;71763;52.220;13.000;2024-02-14T14:12:34;10.30;69.80
82183;DHT22;71763;52.220;13.000;2024-02-14T14:15:00;10.30;69.30
82183;DHT22;71763;52.220;13.000;2024-02-14T14:17:26;10.30;69.30
82183;DHT22;71763;52.220;13.000;2024-02-14T14:19:52;10.30;69.40
82183;DHT22;71763;52.220;13.000;2024-02-14T14:22:18;10.30;69.40
82183;DHT22;71763;52.220;13.000;2024-02-14T14:24:43;10.30;69.50
82183;DHT22;71763;52.220;13.000;2024-02-14T14:27:09;10.30;69.30
82183;DHT22;71763;52.220;13.000;2024-02-14T14:29:42;10.30;69.10
82183;DHT22;71763;52.220;13.000;2024-02-14T14:32:08;10.40;69.40
82183;DHT22;71763;52.220;13.000;2024-02-14T14:34:33;10.40;69.40
82183;DHT22;71763;52.220;13.000;2024-02-14T14:36:59;10.40;69.50
82183;DHT22;71763;52.220;13.000;2024-02-14T14:39:24;10.30;69.50
82183;DHT22;71763;52.220;13.000;2024-02-14T14:41:50;10.30;69.60
82183;DHT22;71763;52.220;13.000;2024-02-14T14:44:16;10.40;69.60
82183;DHT22;71763;52.220;13.000;2024-02-14T14:46:42;10.40;69.70
82183;DHT22;71763;52.220;13.000;2024-02-14T14:49:10;10.50;69.70
82183;DHT22;71763;52.220;13.000;2024-02-14T14:51:36;10.50;69.10
82183;DHT22;71763;52.220;13.000;2024-02-14T14:54:03;10.60;69.20
82183;DHT22;71763;52.220;13.000;2024-02-14T14:56:29;10.60;69.20
82183;DHT22;71763;52.220;13.000;2024-02-14T14:58:54;10.60;69.20
82183;DHT22;71763;52.220;13.000;2024-02-14T15:01:21;10.60;69.30
82183;DHT22;71763;52.220;13.000;2024-02-14T15:03:46;10.50;69.20
82183;DHT22;71763;52.220;13.000;2024-02-14T15:06:12;10.50;69.10
82183;DHT22;71763;52.220;13.000;2024-02-14T15:08:40;10.50;69.30
82183;DHT22;71763;52.220;13.000;2024-02-14T15:11:08;10.60;69.60
82183;DHT22;71763;52.220;13.000;2024-02-14T15:13:52;10.60;69.70
82183;DHT22;71763;52.220;13.000;2024-02-14T15:16:17;10.50;69.50
82183;DHT22;71763;52.220;13.000;2024-02-14T15:18:43;10.60;69.60
82183;DHT22;71763;52.220;13.000;2024-02-14T15:21:09;10.60;69.60
82183;DHT22;71763;52.220;13.000;2024-02-14T15:23:35;10.60;69.70
82183;DHT22;71763;52.220;13.000;2024-02-14T15:26:00;10.60;69.80
82183;DHT22;71763;52.220;13.000;2024-02-14T15:28:31;10.50;69.70
82183;DHT22;71763;52.220;13.000;2024-02-14T15:30:57;10.50;69.80
82183;DHT22;71763;52.220;13.000;2024-02-14T15:33:41;10.50;69.80